Terminal Aerodrome Forecast
Issued by NWS

Home | Current Version | Previous Version | Graphics & Text | Print | Product List | Glossary On
Versions: 1 2 3 4 5 6 7 8 9 10 11 12 13 14 15 16 17 18 19
259
FTUS43 KABR 201359 AAB
TAFPIR
TAF AMD
KPIR 201359Z 2014/2112 01010KT P6SM SCT200
     FM202000 03006KT P6SM BKN200=

USA.gov is the U.S. government's official web portal to all federal, state and local government web resources and services.